Time;durP1;ratioP1;P1;durP2;ratioP2;P2;SDS_P1;SDS_P2;PMS_P1;PMS_P2;Temp;Humidity;BMP_temperature;BMP_pressure;BME280_temperature;BME280_humidity;BME280_pressure;Samples;Min_cycle;Max_cycle;Signal;HPM_P1;HPM_P2
2023/04/29 00:00:16;;;;;;;61.33;33.17;;;12.20;99.90;;;;;;4177450;28;20045;-68
2023/04/29 00:02:17;;;;;;;58.38;32.38;;;12.10;99.90;;;;;;4177685;28;20056;-68
2023/04/29 00:04:18;;;;;;;56.33;31.85;;;12.10;99.90;;;;;;4177625;28;20033;-68
2023/04/29 00:06:19;;;;;;;48.15;28.40;;;12.10;99.90;;;;;;4177150;28;20049;-68
2023/04/29 00:08:20;;;;;;;50.03;29.83;;;12.10;99.90;;;;;;4176189;28;20035;-68
2023/04/29 00:10:20;;;;;;;53.25;31.05;;;12.10;99.90;;;;;;4177193;28;20025;-68
2023/04/29 00:12:21;;;;;;;52.15;28.92;;;12.10;99.90;;;;;;4177461;28;20029;-68
2023/04/29 00:14:22;;;;;;;49.75;28.42;;;12.20;99.90;;;;;;4178148;28;20025;-67
2023/04/29 00:16:22;;;;;;;55.45;31.63;;;12.20;99.90;;;;;;4176267;28;20037;-68
2023/04/29 00:18:23;;;;;;;51.58;29.60;;;12.20;99.90;;;;;;4174998;28;20029;-68
2023/04/29 00:20:23;;;;;;;60.88;33.35;;;12.20;99.90;;;;;;4175981;28;20040;-68
2023/04/29 00:22:24;;;;;;;51.70;30.17;;;12.10;99.90;;;;;;4176129;28;20074;-67
2023/04/29 00:24:24;;;;;;;59.78;34.03;;;12.10;99.90;;;;;;4177867;28;20045;-68
2023/04/29 00:26:25;;;;;;;60.83;34.67;;;12.10;99.90;;;;;;4176861;28;20511;-68
2023/04/29 00:28:25;;;;;;;58.65;34.17;;;12.00;99.90;;;;;;4177527;28;20606;-68
2023/04/29 00:30:30;;;;;;;63.78;35.22;;;12.10;99.90;;;;;;4175737;28;20021;-68
2023/04/29 00:32:30;;;;;;;55.80;33.33;;;12.00;99.90;;;;;;4174259;28;20032;-68
2023/04/29 00:34:31;;;;;;;59.97;33.28;;;12.00;99.90;;;;;;4180164;28;20055;-68
2023/04/29 00:36:32;;;;;;;61.97;35.72;;;12.00;99.90;;;;;;4176570;28;20044;-68
2023/04/29 00:38:32;;;;;;;68.05;37.95;;;12.00;99.90;;;;;;4175738;28;20060;-68
2023/04/29 00:40:34;;;;;;;69.20;39.17;;;12.00;99.90;;;;;;4176686;28;20033;-68
2023/04/29 00:42:35;;;;;;;66.88;38.65;;;12.00;99.90;;;;;;4175439;28;20043;-69
2023/04/29 00:44:36;;;;;;;72.93;39.10;;;12.00;99.90;;;;;;4177275;28;20048;-68
2023/04/29 00:46:36;;;;;;;76.47;39.60;;;12.00;99.90;;;;;;4176354;28;20048;-67
2023/04/29 00:48:38;;;;;;;74.80;40.00;;;11.90;99.90;;;;;;4177504;28;20033;-68
2023/04/29 00:50:38;;;;;;;88.90;45.95;;;12.00;99.90;;;;;;4176013;28;20468;-68
2023/04/29 00:52:39;;;;;;;86.53;44.22;;;11.90;99.90;;;;;;4175658;28;20043;-68
2023/04/29 00:54:40;;;;;;;95.65;45.90;;;11.90;99.90;;;;;;4177122;28;20041;-68
2023/04/29 00:56:45;;;;;;;96.60;44.35;;;11.80;99.90;;;;;;4176231;28;20083;-68
2023/04/29 00:58:48;;;;;;;99.18;46.90;;;11.80;99.90;;;;;;4175972;28;20109;-68
2023/04/29 01:00:49;;;;;;;102.90;46.05;;;11.70;99.90;;;;;;4176482;28;20120;-68
2023/04/29 01:02:51;;;;;;;104.18;48.53;;;11.70;99.90;;;;;;4175904;28;20033;-68
2023/04/29 01:04:52;;;;;;;85.82;41.30;;;11.60;99.90;;;;;;4174350;28;20040;-68
2023/04/29 01:07:05;;;;;;;92.65;44.90;;;11.60;99.90;;;;;;4172295;28;20117;-68
2023/04/29 01:09:13;;;;;;;;;;;11.70;99.90;;;;;;4176132;28;20060;-68
2023/04/29 01:11:18;;;;;;;85.80;41.92;;;11.60;99.90;;;;;;4172215;28;19996;-67
2023/04/29 01:13:31;;;;;;;89.45;42.08;;;11.60;99.90;;;;;;4175249;28;20167;-68
2023/04/29 01:15:45;;;;;;;86.45;41.90;;;11.60;99.90;;;;;;4175196;28;20495;-67
2023/04/29 01:17:59;;;;;;;74.65;39.70;;;11.60;99.90;;;;;;4176437;28;20458;-68
2023/04/29 01:20:00;;;;;;;79.13;39.55;;;11.60;99.90;;;;;;4174802;28;20415;-68
2023/04/29 01:22:01;;;;;;;73.60;37.38;;;11.60;99.90;;;;;;4174793;28;20392;-69
2023/04/29 01:24:01;;;;;;;68.18;35.28;;;11.50;99.90;;;;;;4176654;28;20039;-68
2023/04/29 01:26:02;;;;;;;71.65;36.50;;;11.50;99.90;;;;;;4175402;28;20488;-68
2023/04/29 01:28:39;;;;;;;71.18;35.92;;;11.60;99.90;;;;;;4176081;28;20408;-68
2023/04/29 01:30:48;;;;;;;78.03;37.45;;;11.60;99.90;;;;;;4154262;28;20029;-68
2023/04/29 01:33:18;;;;;;;71.00;35.85;;;11.50;99.90;;;;;;4176843;28;20029;-68
2023/04/29 01:35:38;;;;;;;70.97;34.90;;;11.50;99.90;;;;;;4171461;28;20043;-68
2023/04/29 01:38:04;;;;;;;64.63;32.60;;;11.50;99.90;;;;;;4174161;28;20400;-68
2023/04/29 01:40:40;;;;;;;65.80;33.72;;;11.50;99.90;;;;;;4175130;28;20045;-68
2023/04/29 01:43:00;;;;;;;70.32;33.30;;;11.50;99.90;;;;;;4170613;28;20074;-68
2023/04/29 01:45:05;;;;;;;63.33;32.42;;;11.60;99.90;;;;;;4175961;28;20052;-67
2023/04/29 01:47:08;;;;;;;64.78;32.95;;;11.60;99.90;;;;;;4169910;28;20468;-67
2023/04/29 01:49:09;;;;;;;83.93;38.80;;;11.60;99.90;;;;;;4165469;28;20084;-68
2023/04/29 01:51:10;;;;;;;66.28;33.85;;;11.50;99.90;;;;;;4172317;28;20033;-67
2023/04/29 01:53:11;;;;;;;69.20;34.88;;;11.50;99.90;;;;;;4175446;28;20146;-67
2023/04/29 01:55:11;;;;;;;74.35;35.50;;;11.50;99.90;;;;;;4175563;28;20463;-68
2023/04/29 01:57:12;;;;;;;73.43;39.15;;;11.60;99.90;;;;;;4176434;28;20416;-67
2023/04/29 01:59:13;;;;;;;79.35;40.55;;;11.60;99.90;;;;;;4179639;28;20546;-67
2023/04/29 02:01:14;;;;;;;73.97;38.42;;;11.50;99.90;;;;;;4174241;28;20082;-67
2023/04/29 02:03:16;;;;;;;73.82;38.65;;;11.40;99.90;;;;;;4174931;28;20069;-67
2023/04/29 02:05:17;;;;;;;74.63;38.97;;;11.40;99.90;;;;;;4175304;28;20541;-65
2023/04/29 02:07:17;;;;;;;70.30;34.83;;;11.40;99.90;;;;;;4174958;28;20044;-65
2023/04/29 02:09:18;;;;;;;82.65;41.10;;;11.40;99.90;;;;;;4174898;28;20113;-65
2023/04/29 02:11:18;;;;;;;64.03;35.08;;;11.40;99.90;;;;;;4174055;28;20053;-65
2023/04/29 02:13:19;;;;;;;77.28;40.75;;;11.40;99.90;;;;;;4176435;28;20033;-65
2023/04/29 02:15:20;;;;;;;72.05;37.22;;;11.40;99.90;;;;;;4175404;28;20476;-65
2023/04/29 02:17:20;;;;;;;64.05;34.20;;;11.40;99.90;;;;;;4175329;28;20064;-65
2023/04/29 02:19:21;;;;;;;67.35;36.17;;;11.50;99.90;;;;;;4175509;28;20130;-65
2023/04/29 02:21:22;;;;;;;74.70;38.85;;;11.50;99.90;;;;;;4172995;28;20021;-66
2023/04/29 02:23:22;;;;;;;79.78;41.65;;;11.50;99.90;;;;;;4176269;28;20052;-65
2023/04/29 02:25:23;;;;;;;74.72;39.40;;;11.50;99.90;;;;;;4175333;28;20063;-65
2023/04/29 02:27:23;;;;;;;79.47;41.92;;;11.50;99.90;;;;;;4176363;28;20483;-65
2023/04/29 02:29:25;;;;;;;78.20;39.65;;;11.40;99.90;;;;;;4176349;28;20040;-65
2023/04/29 02:31:27;;;;;;;74.43;39.05;;;11.50;99.90;;;;;;4174407;28;20045;-66
2023/04/29 02:33:28;;;;;;;72.60;37.03;;;11.40;99.90;;;;;;4176539;28;20467;-65
2023/04/29 02:35:28;;;;;;;69.60;36.67;;;11.40;99.90;;;;;;4174361;28;20072;-65
2023/04/29 02:37:29;;;;;;;72.88;38.30;;;11.50;99.90;;;;;;4173272;28;20049;-65
2023/04/29 02:39:30;;;;;;;69.93;37.28;;;11.50;99.90;;;;;;4175582;28;20471;-65
2023/04/29 02:41:30;;;;;;;66.68;34.00;;;11.50;99.90;;;;;;4174882;28;20483;-65
2023/04/29 02:43:31;;;;;;;56.30;33.08;;;11.50;99.90;;;;;;4174871;28;20415;-65
2023/04/29 02:45:32;;;;;;;64.95;34.60;;;11.50;99.90;;;;;;4179179;28;20071;-65
2023/04/29 02:47:32;;;;;;;60.50;32.95;;;11.50;99.90;;;;;;4172844;28;20447;-65
2023/04/29 02:49:33;;;;;;;64.43;34.17;;;11.50;99.90;;;;;;4171515;28;20442;-65
2023/04/29 02:51:33;;;;;;;60.40;34.30;;;11.50;99.90;;;;;;4173910;28;20029;-64
2023/04/29 02:53:34;;;;;;;56.70;31.70;;;11.50;99.90;;;;;;4173604;28;20118;-66
2023/04/29 02:55:35;;;;;;;47.90;27.75;;;11.50;99.90;;;;;;4177849;28;20032;-65
2023/04/29 02:57:36;;;;;;;48.22;27.13;;;11.50;99.90;;;;;;4178755;28;20041;-66
2023/04/29 02:59:37;;;;;;;52.53;29.13;;;11.50;99.90;;;;;;4179079;28;20072;-65
2023/04/29 03:01:38;;;;;;;45.55;26.05;;;11.50;99.90;;;;;;4176502;28;20033;-66
2023/04/29 03:03:38;;;;;;;38.33;22.52;;;11.40;99.90;;;;;;4178111;28;20029;-66
2023/04/29 03:05:39;;;;;;;45.03;25.63;;;11.40;99.90;;;;;;4177564;28;20049;-65
2023/04/29 03:07:40;;;;;;;40.63;23.55;;;11.40;99.90;;;;;;4177012;28;20432;-65
2023/04/29 03:09:40;;;;;;;34.80;21.85;;;11.40;99.90;;;;;;4178885;28;20057;-66
2023/04/29 03:11:41;;;;;;;40.00;23.23;;;11.40;99.90;;;;;;4176349;28;20079;-66
2023/04/29 03:13:41;;;;;;;38.72;22.00;;;11.40;99.90;;;;;;4178278;28;20036;-65
2023/04/29 03:15:43;;;;;;;40.53;22.58;;;11.40;99.90;;;;;;4175928;28;20102;-65
2023/04/29 03:17:45;;;;;;;42.13;23.35;;;11.30;99.90;;;;;;4177225;28;20057;-65
2023/04/29 03:19:45;;;;;;;42.55;23.23;;;11.40;99.90;;;;;;4178332;28;20033;-65
2023/04/29 03:21:46;;;;;;;33.70;20.38;;;11.30;99.90;;;;;;4176330;28;21258;-65
2023/04/29 03:23:46;;;;;;;31.30;19.35;;;11.30;99.90;;;;;;4176600;28;20098;-65
2023/04/29 03:25:47;;;;;;;37.45;21.40;;;11.30;99.90;;;;;;4174845;28;20080;-65
2023/04/29 03:27:47;;;;;;;40.10;22.88;;;11.30;99.90;;;;;;4178265;28;20119;-65
2023/04/29 03:29:48;;;;;;;37.97;21.30;;;11.30;99.90;;;;;;4178760;28;20075;-65
2023/04/29 03:31:49;;;;;;;33.25;20.65;;;11.30;99.90;;;;;;4176628;28;20397;-65
2023/04/29 03:33:49;;;;;;;39.05;22.65;;;11.30;99.90;;;;;;4176155;28;20551;-65
2023/04/29 03:35:50;;;;;;;38.75;21.48;;;11.30;99.90;;;;;;4176736;28;20435;-65
2023/04/29 03:37:51;;;;;;;32.88;20.15;;;11.20;99.90;;;;;;4175454;28;20056;-65
2023/04/29 03:39:51;;;;;;;33.00;19.13;;;11.30;99.90;;;;;;4177903;28;20048;-65
2023/04/29 03:41:52;;;;;;;30.48;18.85;;;11.40;99.90;;;;;;4177519;28;20041;-65
2023/04/29 03:43:53;;;;;;;34.47;20.50;;;11.30;99.90;;;;;;4178214;28;20064;-65
2023/04/29 03:45:54;;;;;;;37.47;19.80;;;11.40;99.90;;;;;;4177483;28;20111;-65
2023/04/29 03:47:55;;;;;;;32.97;18.38;;;11.40;99.90;;;;;;4177192;28;20427;-66
2023/04/29 03:49:55;;;;;;;30.25;17.33;;;11.40;99.90;;;;;;4177439;28;20035;-65
2023/04/29 03:51:56;;;;;;;33.60;19.85;;;11.40;99.90;;;;;;4176156;28;20080;-65
2023/04/29 03:53:57;;;;;;;34.17;20.67;;;11.50;99.90;;;;;;4175149;28;20037;-65
2023/04/29 03:55:58;;;;;;;27.45;17.00;;;11.40;99.90;;;;;;4177314;28;20073;-65
2023/04/29 03:57:58;;;;;;;28.92;18.42;;;11.50;99.90;;;;;;4178903;28;20032;-65
2023/04/29 03:59:59;;;;;;;26.80;16.80;;;11.40;99.90;;;;;;4178021;28;20037;-65
2023/04/29 04:01:59;;;;;;;31.63;19.05;;;11.40;99.90;;;;;;4175276;28;20183;-65
2023/04/29 04:04:00;;;;;;;27.30;17.85;;;11.40;99.90;;;;;;4177380;28;20419;-65
2023/04/29 04:06:01;;;;;;;27.55;16.20;;;11.40;99.90;;;;;;4173070;28;20723;-65
2023/04/29 04:08:01;;;;;;;25.05;16.58;;;11.40;99.90;;;;;;4176886;28;20064;-65
2023/04/29 04:10:02;;;;;;;28.83;17.25;;;11.40;99.90;;;;;;4177817;28;20068;-65
2023/04/29 04:12:03;;;;;;;26.80;16.25;;;11.40;99.90;;;;;;4176526;28;20381;-65
2023/04/29 04:14:04;;;;;;;25.00;15.43;;;11.40;99.90;;;;;;4177028;28;20055;-65
2023/04/29 04:16:05;;;;;;;27.02;16.15;;;11.40;99.90;;;;;;4172046;28;20128;-65
2023/04/29 04:18:06;;;;;;;25.75;16.50;;;11.40;99.90;;;;;;4175965;28;20045;-65
2023/04/29 04:20:07;;;;;;;28.05;17.05;;;11.50;99.90;;;;;;4175788;28;20044;-66
2023/04/29 04:22:07;;;;;;;24.85;16.35;;;11.50;99.90;;;;;;4174982;28;20377;-66
2023/04/29 04:24:08;;;;;;;28.23;17.42;;;11.50;99.90;;;;;;4175030;28;20115;-66
2023/04/29 04:26:09;;;;;;;23.77;14.93;;;11.50;99.90;;;;;;4175271;28;20499;-65
2023/04/29 04:28:09;;;;;;;26.40;15.90;;;11.40;99.90;;;;;;4176998;28;20032;-66
2023/04/29 04:30:11;;;;;;;25.83;15.40;;;11.40;99.90;;;;;;4176483;28;20037;-66
2023/04/29 04:32:11;;;;;;;33.88;18.38;;;11.40;99.90;;;;;;4177533;28;20120;-65
2023/04/29 04:34:12;;;;;;;23.15;15.68;;;11.50;99.90;;;;;;4177549;28;20059;-65
2023/04/29 04:36:12;;;;;;;26.25;16.17;;;11.50;99.90;;;;;;4175664;28;20150;-65
2023/04/29 04:38:14;;;;;;;30.00;18.23;;;11.40;99.90;;;;;;4173543;28;20033;-66
2023/04/29 04:40:14;;;;;;;27.25;17.02;;;11.40;99.90;;;;;;4174593;28;20116;-66
2023/04/29 04:42:15;;;;;;;25.27;16.23;;;11.30;99.90;;;;;;4177330;28;20053;-66
2023/04/29 04:44:15;;;;;;;22.30;14.82;;;11.40;99.90;;;;;;4181069;28;20041;-65
2023/04/29 04:46:16;;;;;;;25.23;15.38;;;11.40;99.90;;;;;;4174931;28;20083;-66
2023/04/29 04:48:17;;;;;;;24.88;17.00;;;11.30;99.90;;;;;;4176934;28;20046;-65
2023/04/29 04:50:18;;;;;;;23.85;15.27;;;11.40;99.90;;;;;;4176268;28;20069;-65
2023/04/29 04:52:20;;;;;;;30.85;17.88;;;11.40;99.90;;;;;;4175164;28;20029;-65
2023/04/29 04:54:21;;;;;;;26.27;16.38;;;11.40;99.90;;;;;;4174675;28;20131;-65
2023/04/29 04:56:21;;;;;;;25.95;17.58;;;11.30;99.90;;;;;;4174486;28;20031;-64
2023/04/29 04:58:22;;;;;;;23.55;15.57;;;11.30;99.90;;;;;;4177483;28;20476;-65
2023/04/29 05:00:22;;;;;;;25.40;16.40;;;11.30;99.90;;;;;;4175523;28;20037;-65
2023/04/29 05:02:23;;;;;;;26.60;16.83;;;11.30;99.90;;;;;;4176457;28;20030;-65
2023/04/29 05:04:23;;;;;;;27.15;16.33;;;11.40;99.90;;;;;;4176234;28;20087;-65
2023/04/29 05:06:24;;;;;;;26.10;14.77;;;11.40;99.90;;;;;;4174814;28;20076;-65
2023/04/29 05:08:25;;;;;;;25.05;15.10;;;11.40;99.90;;;;;;4175729;28;20430;-65
2023/04/29 05:10:26;;;;;;;27.27;15.73;;;11.40;99.90;;;;;;4173208;28;20095;-65
2023/04/29 05:12:30;;;;;;;27.20;16.48;;;11.40;99.90;;;;;;4175830;28;20041;-65
2023/04/29 05:14:30;;;;;;;25.80;16.17;;;11.30;99.90;;;;;;4176796;28;20379;-65
2023/04/29 05:16:31;;;;;;;25.60;16.52;;;11.40;99.90;;;;;;4172368;28;20037;-65
2023/04/29 05:18:32;;;;;;;25.33;15.88;;;11.30;99.90;;;;;;4159945;28;20037;-65
2023/04/29 05:20:33;;;;;;;28.58;15.55;;;11.40;99.90;;;;;;4173888;28;20044;-66
2023/04/29 05:22:33;;;;;;;27.25;15.75;;;11.30;99.90;;;;;;4170136;28;20041;-65
2023/04/29 05:24:34;;;;;;;25.65;15.82;;;11.40;99.90;;;;;;4173926;28;20111;-65
2023/04/29 05:26:35;;;;;;;26.48;16.67;;;11.30;99.90;;;;;;4172728;28;20048;-65
2023/04/29 05:28:35;;;;;;;23.60;16.00;;;11.30;99.90;;;;;;4175703;28;20129;-65
2023/04/29 05:30:36;;;;;;;26.38;15.57;;;11.30;99.90;;;;;;4169687;28;20666;-65
2023/04/29 05:32:37;;;;;;;30.30;16.63;;;11.30;99.90;;;;;;4171948;28;20040;-66
2023/04/29 05:34:37;;;;;;;24.48;16.02;;;11.30;99.90;;;;;;4175881;28;20053;-66
2023/04/29 05:36:39;;;;;;;25.55;15.57;;;11.30;99.90;;;;;;4174037;28;20048;-64
2023/04/29 05:38:40;;;;;;;27.70;16.13;;;11.30;99.90;;;;;;4175743;28;20675;-65
2023/04/29 05:40:41;;;;;;;27.92;18.35;;;11.30;99.90;;;;;;4173339;28;20037;-66
2023/04/29 05:42:41;;;;;;;27.30;16.17;;;11.30;99.90;;;;;;4173436;28;20045;-66
2023/04/29 05:44:42;;;;;;;24.70;15.63;;;11.30;99.90;;;;;;4175679;28;20047;-65
2023/04/29 05:46:42;;;;;;;27.60;17.13;;;11.30;99.90;;;;;;4172455;28;20135;-65
2023/04/29 05:48:43;;;;;;;26.52;15.55;;;11.20;99.90;;;;;;4174845;28;20063;-66
2023/04/29 05:50:44;;;;;;;26.30;16.75;;;11.30;99.90;;;;;;4173151;28;20369;-65
2023/04/29 05:52:45;;;;;;;25.63;17.35;;;11.20;99.90;;;;;;4175407;28;20033;-65
2023/04/29 05:54:45;;;;;;;21.13;14.10;;;11.20;99.90;;;;;;4172818;28;20037;-65
2023/04/29 05:56:46;;;;;;;23.80;15.73;;;11.20;99.90;;;;;;4174659;28;20035;-65
2023/04/29 05:58:47;;;;;;;23.15;15.20;;;11.30;99.90;;;;;;4175623;28;20045;-66
2023/04/29 06:00:48;;;;;;;20.80;13.45;;;11.30;99.90;;;;;;4173633;28;20452;-65
2023/04/29 06:02:49;;;;;;;20.60;12.98;;;11.30;99.90;;;;;;4176169;28;20081;-65
2023/04/29 06:04:49;;;;;;;25.15;15.43;;;11.40;99.90;;;;;;4175737;28;20464;-65
2023/04/29 06:06:51;;;;;;;20.58;13.82;;;11.30;99.90;;;;;;4174428;28;20041;-65
2023/04/29 06:08:52;;;;;;;21.50;13.55;;;11.40;99.90;;;;;;4176167;28;20045;-65
2023/04/29 06:10:53;;;;;;;23.67;14.00;;;11.40;99.90;;;;;;4174876;28;20045;-65
2023/04/29 06:12:53;;;;;;;21.50;14.23;;;11.40;99.90;;;;;;4176361;28;20037;-66
2023/04/29 06:14:54;;;;;;;24.13;14.75;;;11.40;99.90;;;;;;4176418;28;20044;-66
2023/04/29 06:16:55;;;;;;;23.30;14.95;;;11.40;99.90;;;;;;4170619;28;20049;-65
2023/04/29 06:18:55;;;;;;;19.02;12.52;;;11.40;99.90;;;;;;4175755;28;20059;-65
2023/04/29 06:20:56;;;;;;;20.48;13.38;;;11.40;99.90;;;;;;4174126;28;20045;-66
2023/04/29 06:22:56;;;;;;;25.13;14.93;;;11.40;99.90;;;;;;4176121;28;20052;-65
2023/04/29 06:24:57;;;;;;;21.92;13.52;;;11.40;99.90;;;;;;4177115;28;20064;-66
2023/04/29 06:26:57;;;;;;;21.05;13.45;;;11.50;99.90;;;;;;4173421;28;20403;-66
2023/04/29 06:28:58;;;;;;;21.05;13.18;;;11.50;99.90;;;;;;4176028;28;20029;-65
2023/04/29 06:30:59;;;;;;;19.42;12.73;;;11.40;99.90;;;;;;4171426;28;20511;-66
2023/04/29 06:32:59;;;;;;;22.08;14.10;;;11.50;99.90;;;;;;4179026;28;20044;-66
2023/04/29 06:35:00;;;;;;;19.15;13.38;;;11.50;99.90;;;;;;4176275;28;20039;-65
2023/04/29 06:37:01;;;;;;;17.30;11.98;;;11.50;99.90;;;;;;4175755;28;20037;-65
2023/04/29 06:39:01;;;;;;;21.42;13.02;;;11.50;99.90;;;;;;4178464;28;20035;-65
2023/04/29 06:41:03;;;;;;;22.83;13.73;;;11.50;99.90;;;;;;4172124;28;20029;-65
2023/04/29 06:43:03;;;;;;;21.55;14.07;;;11.50;99.90;;;;;;4178792;28;20395;-66
2023/04/29 06:45:05;;;;;;;21.55;13.05;;;11.50;99.90;;;;;;4177888;28;20044;-68
2023/04/29 06:47:05;;;;;;;23.25;13.65;;;11.50;99.90;;;;;;4177235;28;20036;-65
2023/04/29 06:49:06;;;;;;;18.17;12.48;;;11.50;99.90;;;;;;4176771;28;20383;-65
2023/04/29 06:51:07;;;;;;;21.90;12.77;;;11.50;99.90;;;;;;4176690;28;20041;-66
2023/04/29 06:53:07;;;;;;;20.75;13.57;;;11.50;99.90;;;;;;4178250;28;20051;-66
2023/04/29 06:55:08;;;;;;;18.98;12.60;;;11.50;99.90;;;;;;4174929;28;20060;-66
2023/04/29 06:57:08;;;;;;;21.77;13.07;;;11.50;99.90;;;;;;4177562;28;20063;-66
2023/04/29 06:59:11;;;;;;;19.20;11.65;;;11.50;99.90;;;;;;4177829;28;20037;-66
2023/04/29 07:01:12;;;;;;;17.15;12.13;;;11.50;99.90;;;;;;4176690;28;20395;-66
2023/04/29 07:03:13;;;;;;;19.83;12.77;;;11.50;99.90;;;;;;4177329;28;20112;-66
2023/04/29 07:05:13;;;;;;;20.27;12.35;;;11.60;99.90;;;;;;4176678;28;20045;-65
2023/04/29 07:07:14;;;;;;;19.00;12.68;;;11.60;99.90;;;;;;4176753;28;20037;-65
2023/04/29 07:09:15;;;;;;;18.58;12.93;;;11.60;99.90;;;;;;4178264;28;20120;-65
2023/04/29 07:11:15;;;;;;;18.63;11.95;;;11.60;99.90;;;;;;4176698;28;20048;-65
2023/04/29 07:13:16;;;;;;;19.42;12.25;;;11.60;99.90;;;;;;4181354;28;20499;-65
2023/04/29 07:15:16;;;;;;;17.42;11.52;;;11.70;99.90;;;;;;4177690;28;20053;-66
2023/04/29 07:17:17;;;;;;;20.35;14.13;;;11.70;99.90;;;;;;4177730;28;20087;-65
2023/04/29 07:19:18;;;;;;;23.98;13.50;;;11.70;99.90;;;;;;4176441;28;20083;-65
2023/04/29 07:21:19;;;;;;;22.90;13.88;;;11.70;99.90;;;;;;4178261;28;20142;-66
2023/04/29 07:23:19;;;;;;;19.20;12.93;;;11.70;99.90;;;;;;4176503;28;20040;-65
2023/04/29 07:25:20;;;;;;;23.10;13.88;;;11.70;99.90;;;;;;4174001;28;20048;-66
2023/04/29 07:27:20;;;;;;;23.38;13.63;;;11.60;99.90;;;;;;4176480;28;20036;-65
2023/04/29 07:29:21;;;;;;;22.08;13.20;;;11.70;99.90;;;;;;4178281;28;20048;-66
2023/04/29 07:31:21;;;;;;;21.35;14.07;;;11.70;99.90;;;;;;4177760;28;20040;-65
2023/04/29 07:33:22;;;;;;;20.13;12.88;;;11.70;99.90;;;;;;4179800;28;20049;-66
2023/04/29 07:35:23;;;;;;;19.25;12.85;;;11.70;99.90;;;;;;4177645;28;20048;-66
2023/04/29 07:37:24;;;;;;;18.50;12.48;;;11.80;99.90;;;;;;4177328;28;20051;-66
2023/04/29 07:39:24;;;;;;;18.10;11.82;;;11.70;99.90;;;;;;4178061;28;20040;-66
2023/04/29 07:41:25;;;;;;;19.65;11.63;;;11.70;99.90;;;;;;4174387;28;20037;-66
2023/04/29 07:43:26;;;;;;;20.13;12.02;;;11.80;99.90;;;;;;4178361;28;20067;-66
2023/04/29 07:45:26;;;;;;;16.17;11.18;;;11.80;99.90;;;;;;4173888;28;20452;-65
2023/04/29 07:47:27;;;;;;;19.83;13.05;;;11.80;99.90;;;;;;4173763;28;20041;-65
2023/04/29 07:49:28;;;;;;;21.38;11.68;;;11.80;99.90;;;;;;4178893;28;20033;-65
2023/04/29 07:51:28;;;;;;;18.70;11.98;;;11.90;99.90;;;;;;4176883;28;20464;-65
2023/04/29 07:53:29;;;;;;;17.67;12.70;;;11.90;99.90;;;;;;4176617;28;20454;-65
2023/04/29 07:55:29;;;;;;;18.85;12.30;;;11.90;99.90;;;;;;4174957;28;20090;-66
2023/04/29 07:57:30;;;;;;;23.98;13.90;;;11.90;99.90;;;;;;4178536;28;20566;-66
2023/04/29 07:59:31;;;;;;;18.33;12.15;;;11.90;99.90;;;;;;4177742;28;20041;-66
2023/04/29 08:01:31;;;;;;;19.00;12.38;;;11.90;99.90;;;;;;4174908;28;20872;-65
2023/04/29 08:03:32;;;;;;;22.33;13.68;;;11.90;99.90;;;;;;4176869;28;20128;-65
2023/04/29 08:05:33;;;;;;;23.08;14.32;;;11.90;99.90;;;;;;4176860;28;20060;-65
2023/04/29 08:07:33;;;;;;;27.33;12.95;;;11.80;99.90;;;;;;4176368;28;20033;-65
2023/04/29 08:09:34;;;;;;;21.25;13.18;;;11.90;99.90;;;;;;4175024;28;20029;-65
2023/04/29 08:11:34;;;;;;;17.70;11.85;;;11.90;99.90;;;;;;4170674;28;20033;-65
2023/04/29 08:13:35;;;;;;;20.25;13.00;;;11.90;99.90;;;;;;4176051;28;20039;-65
2023/04/29 08:15:35;;;;;;;21.70;13.90;;;11.90;99.90;;;;;;4176713;28;20552;-65
2023/04/29 08:17:36;;;;;;;23.20;13.63;;;11.80;99.90;;;;;;4174545;28;20500;-66
2023/04/29 08:19:36;;;;;;;27.40;15.35;;;11.80;99.90;;;;;;4171738;28;20484;-66
2023/04/29 08:21:37;;;;;;;23.70;15.57;;;11.90;99.90;;;;;;4171665;28;20095;-66
2023/04/29 08:23:38;;;;;;;21.00;14.05;;;11.80;99.90;;;;;;4172821;28;20059;-66
2023/04/29 08:25:42;;;;;;;24.23;14.80;;;11.90;99.90;;;;;;4174795;28;20041;-65
2023/04/29 08:27:44;;;;;;;29.13;16.38;;;11.90;99.90;;;;;;4174499;28;20037;-66
2023/04/29 08:29:45;;;;;;;29.30;17.83;;;11.90;99.90;;;;;;4177018;28;20044;-65
2023/04/29 08:31:46;;;;;;;29.52;17.55;;;11.80;99.90;;;;;;4175485;28;20387;-65
2023/04/29 08:33:47;;;;;;;28.85;16.80;;;11.80;99.90;;;;;;4176656;28;20538;-66
2023/04/29 08:35:48;;;;;;;30.13;17.48;;;11.80;99.90;;;;;;4175819;28;20087;-65
2023/04/29 08:37:48;;;;;;;24.67;15.68;;;11.80;99.90;;;;;;4177056;28;20033;-65
2023/04/29 08:39:49;;;;;;;23.05;15.00;;;11.80;99.90;;;;;;4176643;28;20116;-65
2023/04/29 08:41:50;;;;;;;26.10;14.68;;;11.80;99.90;;;;;;4174515;28;20527;-65
2023/04/29 08:43:51;;;;;;;23.08;13.85;;;11.90;99.90;;;;;;4176784;28;20415;-65
2023/04/29 08:45:52;;;;;;;20.25;13.98;;;11.90;99.90;;;;;;4179789;28;20037;-65
2023/04/29 08:47:55;;;;;;;25.52;14.70;;;11.90;99.90;;;;;;4179513;28;20545;-65
2023/04/29 08:49:57;;;;;;;;;;;11.90;99.90;;;;;;4178726;28;20108;-65
2023/04/29 08:51:58;;;;;;;25.58;15.25;;;12.00;99.90;;;;;;4174527;28;19908;-64
2023/04/29 08:53:59;;;;;;;23.20;14.48;;;12.00;99.90;;;;;;4175123;28;20044;-65
2023/04/29 08:56:07;;;;;;;24.23;14.32;;;12.00;99.90;;;;;;4177679;28;20439;-65
2023/04/29 08:58:09;;;;;;;27.30;16.35;;;12.10;99.90;;;;;;4176263;28;20067;-65
2023/04/29 09:00:10;;;;;;;27.17;15.82;;;12.00;99.90;;;;;;4177645;28;20036;-66
2023/04/29 09:02:16;;;;;;;22.70;15.77;;;12.00;99.90;;;;;;4176306;28;20060;-66
2023/04/29 09:04:46;;;;;;;25.98;15.63;;;12.00;99.90;;;;;;4176431;28;20041;-65
2023/04/29 09:06:47;;;;;;;24.50;15.15;;;12.10;99.90;;;;;;4173808;28;20472;-65
2023/04/29 09:08:48;;;;;;;21.55;14.48;;;12.00;99.90;;;;;;4176360;28;20033;-65
2023/04/29 09:10:51;;;;;;;22.80;14.55;;;12.10;99.90;;;;;;4175518;28;20399;-65
2023/04/29 09:12:56;;;;;;;21.30;12.90;;;12.10;99.90;;;;;;4174694;28;20184;-65
2023/04/29 09:14:57;;;;;;;19.85;13.90;;;12.20;99.90;;;;;;4176443;28;20503;-65
2023/04/29 09:16:58;;;;;;;29.50;16.45;;;12.20;99.90;;;;;;4170671;28;20044;-64
2023/04/29 09:18:59;;;;;;;20.90;14.70;;;12.20;99.90;;;;;;4176229;28;20087;-65
2023/04/29 09:21:15;;;;;;;21.85;14.38;;;12.30;99.90;;;;;;4177970;28;20554;-65
2023/04/29 09:23:15;;;;;;;23.30;14.75;;;12.30;99.90;;;;;;4171338;28;20055;-65
2023/04/29 09:25:16;;;;;;;21.67;14.70;;;12.30;99.90;;;;;;4175789;28;20049;-66
2023/04/29 09:27:28;;;;;;;23.02;14.07;;;12.30;99.90;;;;;;4175014;28;20124;-66
2023/04/29 09:29:29;;;;;;;22.45;14.80;;;12.30;99.90;;;;;;4173532;28;20748;-65
2023/04/29 09:31:30;;;;;;;24.95;15.73;;;12.30;99.90;;;;;;4173275;28;20128;-65
2023/04/29 09:33:31;;;;;;;21.38;14.15;;;12.30;99.90;;;;;;4176051;28;20037;-65
2023/04/29 09:35:31;;;;;;;20.88;13.60;;;12.30;99.90;;;;;;4174853;28;20036;-65
2023/04/29 09:37:32;;;;;;;32.60;16.83;;;12.30;99.90;;;;;;4175177;28;20102;-65
2023/04/29 09:39:39;;;;;;;21.95;14.32;;;12.30;99.90;;;;;;4178290;28;20577;-65
2023/04/29 09:41:51;;;;;;;22.00;14.57;;;12.30;99.90;;;;;;4172117;28;20044;-65
2023/04/29 09:44:04;;;;;;;20.67;13.80;;;12.30;99.90;;;;;;4174727;28;20037;-66
2023/04/29 09:46:11;;;;;;;20.58;13.07;;;12.40;99.90;;;;;;4178519;28;20064;-65
2023/04/29 09:48:14;;;;;;;24.35;15.05;;;12.40;99.90;;;;;;4175919;28;20037;-66
2023/04/29 09:50:15;;;;;;;;;;;12.50;99.90;;;;;;4176373;28;20041;-66
2023/04/29 09:52:17;;;;;;;17.25;12.70;;;12.50;99.90;;;;;;4175668;28;20003;-66
2023/04/29 09:54:22;;;;;;;22.63;14.60;;;12.60;99.90;;;;;;4175939;28;20036;-65
2023/04/29 09:56:23;;;;;;;26.13;15.00;;;12.60;99.90;;;;;;4172247;28;20045;-65
2023/04/29 09:58:29;;;;;;;25.65;16.08;;;12.60;99.90;;;;;;4170755;28;20056;-65
2023/04/29 10:00:32;;;;;;;24.15;14.63;;;12.70;99.90;;;;;;4175588;28;22814;-65
2023/04/29 10:02:33;;;;;;;;;;;12.70;99.90;;;;;;4176716;28;20032;-65
2023/04/29 10:04:36;;;;;;;17.35;12.50;;;12.70;99.90;;;;;;4179395;28;20291;-66
2023/04/29 10:06:41;;;;;;;22.15;14.25;;;12.70;99.90;;;;;;4178893;28;20063;-65
2023/04/29 10:08:43;;;;;;;21.20;14.00;;;12.80;99.90;;;;;;4178392;28;20028;-66
2023/04/29 10:10:46;;;;;;;20.67;14.18;;;12.80;99.90;;;;;;4182574;28;20059;-67
2023/04/29 10:12:46;;;;;;;23.05;13.70;;;12.80;99.90;;;;;;4176863;28;20445;-66
2023/04/29 10:15:02;;;;;;;20.35;13.73;;;12.90;99.90;;;;;;4178117;28;20057;-66
2023/04/29 10:17:15;;;;;;;17.95;12.27;;;12.90;99.90;;;;;;4175942;28;20056;-65
2023/04/29 10:19:25;;;;;;;19.15;12.57;;;12.90;99.90;;;;;;4178400;28;20041;-66